Time;durP1;ratioP1;P1;durP2;ratioP2;P2;SDS_P1;SDS_P2;PMS_P1;PMS_P2;Temp;Humidity;BMP_temperature;BMP_pressure;BME280_temperature;BME280_humidity;BME280_pressure;Samples;Min_cycle;Max_cycle;Signal;HPM_P1;HPM_P2
2022/03/31 00:00:01;;;;;;;9.40;3.97;;;;;;;;;;5085603;28;20040;-88
2022/03/31 00:02:26;;;;;;;12.98;4.20;;;;;;;;;;5074172;28;20028;-88
2022/03/31 00:04:52;;;;;;;10.60;3.75;;;;;;;;;;5086810;28;20023;-88
2022/03/31 00:07:17;;;;;;;8.98;3.60;;;;;;;;;;5083550;28;20051;-89
2022/03/31 00:09:42;;;;;;;14.00;5.80;;;;;;;;;;5086524;28;20032;-89
2022/03/31 00:12:09;;;;;;;15.38;5.47;;;;;;;;;;5081112;28;20103;-88
2022/03/31 00:14:34;;;;;;;15.13;5.45;;;;;;;;;;5081995;28;20035;-87
2022/03/31 00:17:00;;;;;;;10.75;4.97;;;;;;;;;;5076157;28;20024;-87
2022/03/31 00:19:25;;;;;;;13.27;4.13;;;;;;;;;;5086933;28;20030;-87
2022/03/31 00:21:51;;;;;;;16.42;4.07;;;;;;;;;;5081564;28;20036;-86
2022/03/31 00:24:17;;;;;;;18.10;3.53;;;;;;;;;;5078619;28;20073;-87
2022/03/31 00:26:42;;;;;;;11.30;4.38;;;;;;;;;;5085562;28;20101;-85
2022/03/31 00:29:08;;;;;;;12.98;3.78;;;;;;;;;;5084622;28;20052;-86
2022/03/31 00:31:34;;;;;;;8.30;3.45;;;;;;;;;;5087737;28;20138;-85
2022/03/31 00:33:59;;;;;;;14.52;4.55;;;;;;;;;;5080282;28;20031;-87
2022/03/31 00:36:26;;;;;;;12.43;4.63;;;;;;;;;;5078496;28;20029;-86
2022/03/31 00:41:37;;;;;;;25.25;6.05;;;;;;;;;;5073212;28;20136;-86
2022/03/31 00:44:04;;;;;;;19.90;5.13;;;;;;;;;;5086014;28;20570;-87
2022/03/31 00:46:29;;;;;;;12.35;3.88;;;;;;;;;;5083948;28;20046;-86
2022/03/31 00:48:55;;;;;;;15.43;4.30;;;;;;;;;;5089625;28;20107;-86
2022/03/31 00:51:20;;;;;;;13.65;4.55;;;;;;;;;;5086778;28;20076;-85
2022/03/31 00:53:46;;;;;;;13.60;4.65;;;;;;;;;;5081137;28;20360;-85
2022/03/31 00:56:11;;;;;;;19.80;4.85;;;;;;;;;;5079398;28;20393;-86
2022/03/31 00:58:37;;;;;;;12.07;4.03;;;;;;;;;;5084833;28;20051;-86
2022/03/31 01:01:03;;;;;;;14.18;4.30;;;;;;;;;;5081947;28;20057;-86
2022/03/31 01:03:29;;;;;;;13.23;3.85;;;;;;;;;;5087572;28;20111;-86
2022/03/31 01:05:55;;;;;;;16.85;3.95;;;;;;;;;;5080145;28;20030;-86
2022/03/31 01:08:21;;;;;;;12.10;4.60;;;;;;;;;;5080641;28;20194;-89
2022/03/31 01:10:49;;;;;;;17.02;3.83;;;;;;;;;;5080886;28;20030;-86
2022/03/31 01:13:15;;;;;;;17.55;4.38;;;;;;;;;;5085310;28;20391;-86
2022/03/31 01:15:41;;;;;;;15.00;4.30;;;;;;;;;;5075176;28;20089;-88
2022/03/31 01:18:06;;;;;;;19.35;4.45;;;;;;;;;;5087000;28;20471;-87
2022/03/31 01:20:33;;;;;;;16.55;4.45;;;;;;;;;;5084416;28;20106;-86
2022/03/31 01:23:00;;;;;;;17.38;4.35;;;;;;;;;;5088404;28;20027;-85
2022/03/31 01:25:26;;;;;;;15.07;4.68;;;;;;;;;;5077751;28;20456;-87
2022/03/31 01:27:52;;;;;;;12.20;3.45;;;;;;;;;;5077017;28;20028;-87
2022/03/31 01:30:20;;;;;;;13.93;4.53;;;;;;;;;;5082591;28;22591;-88
2022/03/31 01:32:46;;;;;;;8.65;3.58;;;;;;;;;;5081558;28;20036;-88
2022/03/31 01:35:13;;;;;;;18.65;4.25;;;;;;;;;;5079963;28;20017;-86
2022/03/31 01:37:39;;;;;;;14.32;4.47;;;;;;;;;;5084197;28;20024;-88
2022/03/31 01:40:06;;;;;;;18.98;4.75;;;;;;;;;;5085569;28;20066;-87
2022/03/31 01:42:32;;;;;;;10.25;3.63;;;;;;;;;;5078528;28;20032;-89
2022/03/31 01:44:58;;;;;;;12.85;4.30;;;;;;;;;;5082238;28;20028;-87
2022/03/31 01:47:23;;;;;;;16.60;5.13;;;;;;;;;;5083282;28;20034;-88
2022/03/31 01:49:49;;;;;;;13.82;4.32;;;;;;;;;;5085923;28;20016;-89
2022/03/31 01:52:14;;;;;;;12.57;5.05;;;;;;;;;;5079936;28;20171;-89
2022/03/31 01:54:41;;;;;;;15.85;4.35;;;;;;;;;;5079279;28;20035;-88
2022/03/31 01:57:06;;;;;;;12.77;5.05;;;;;;;;;;5080486;28;20086;-88
2022/03/31 01:59:33;;;;;;;10.25;4.30;;;;;;;;;;5085220;28;20052;-89
2022/03/31 02:01:58;;;;;;;12.48;5.07;;;;;;;;;;5083417;28;20035;-89
2022/03/31 02:04:24;;;;;;;14.68;4.35;;;;;;;;;;5082561;28;20024;-89
2022/03/31 02:06:49;;;;;;;14.63;4.15;;;;;;;;;;5078758;28;20024;-89
2022/03/31 02:09:15;;;;;;;19.70;5.68;;;;;;;;;;5077881;28;20056;-90
2022/03/31 02:11:40;;;;;;;13.70;4.57;;;;;;;;;;5086523;28;20025;-87
2022/03/31 02:14:06;;;;;;;18.27;4.72;;;;;;;;;;5082786;28;20020;-87
2022/03/31 02:16:31;;;;;;;22.35;5.63;;;;;;;;;;5084759;28;20020;-87
2022/03/31 02:18:57;;;;;;;12.13;4.85;;;;;;;;;;5087667;28;20070;-87
2022/03/31 02:21:22;;;;;;;10.68;3.92;;;;;;;;;;5079658;28;20051;-88
2022/03/31 02:23:47;;;;;;;16.55;4.63;;;;;;;;;;5072267;28;20035;-86
2022/03/31 02:26:13;;;;;;;15.43;3.90;;;;;;;;;;5083676;28;20809;-86
2022/03/31 02:28:39;;;;;;;14.27;4.03;;;;;;;;;;5080125;28;20028;-86
2022/03/31 02:31:04;;;;;;;15.77;5.18;;;;;;;;;;5080311;28;20055;-86
2022/03/31 02:33:30;;;;;;;12.07;4.03;;;;;;;;;;5077028;28;20501;-86
2022/03/31 02:35:56;;;;;;;17.88;4.18;;;;;;;;;;5072258;28;20108;-86
2022/03/31 02:38:22;;;;;;;16.63;3.50;;;;;;;;;;5082148;28;20026;-86
2022/03/31 02:40:47;;;;;;;11.52;3.65;;;;;;;;;;5081866;28;20051;-85
2022/03/31 02:43:12;;;;;;;17.30;4.38;;;;;;;;;;5083509;28;20114;-86
2022/03/31 02:45:38;;;;;;;13.95;3.72;;;;;;;;;;5081619;28;20052;-87
2022/03/31 02:48:06;;;;;;;10.52;3.88;;;;;;;;;;5081632;28;20032;-86
2022/03/31 02:50:31;;;;;;;14.73;4.25;;;;;;;;;;5085878;28;20113;-86
2022/03/31 02:55:41;;;;;;;16.05;4.70;;;;;;;;;;5088014;28;20076;-87
2022/03/31 02:58:06;;;;;;;20.70;4.47;;;;;;;;;;5083477;28;20111;-87
2022/03/31 03:00:34;;;;;;;15.32;4.55;;;;;;;;;;5083857;28;20031;-87
2022/03/31 03:03:02;;;;;;;16.48;4.72;;;;;;;;;;5084779;28;20472;-87
2022/03/31 03:05:28;;;;;;;18.80;4.88;;;;;;;;;;5084050;28;20028;-87
2022/03/31 03:07:53;;;;;;;16.50;4.20;;;;;;;;;;5081444;28;20051;-86
2022/03/31 03:10:19;;;;;;;11.95;4.35;;;;;;;;;;5087652;28;20130;-88
2022/03/31 03:12:45;;;;;;;11.50;3.80;;;;;;;;;;5087181;28;20020;-88
2022/03/31 03:15:11;;;;;;;11.02;3.92;;;;;;;;;;5080875;28;20021;-89
2022/03/31 03:17:42;;;;;;;16.70;4.28;;;;;;;;;;5082963;28;20082;-88
2022/03/31 03:20:13;;;;;;;18.52;4.68;;;;;;;;;;5081742;28;20074;-89
2022/03/31 03:22:49;;;;;;;14.15;4.60;;;;;;;;;;5087994;28;20413;-87
2022/03/31 03:25:17;;;;;;;8.68;4.30;;;;;;;;;;5082891;28;20456;-88
2022/03/31 03:27:43;;;;;;;10.43;4.07;;;;;;;;;;5083282;28;20024;-88
2022/03/31 03:30:09;;;;;;;15.85;4.05;;;;;;;;;;5083722;28;20031;-88
2022/03/31 03:32:39;;;;;;;16.80;5.22;;;;;;;;;;5088549;28;20476;-88
2022/03/31 03:35:07;;;;;;;12.80;3.90;;;;;;;;;;5079885;28;20070;-89
2022/03/31 03:37:33;;;;;;;17.10;5.70;;;;;;;;;;5081534;28;20272;-88
2022/03/31 03:39:58;;;;;;;15.93;4.47;;;;;;;;;;5079472;28;20484;-88
2022/03/31 03:42:25;;;;;;;13.57;4.50;;;;;;;;;;5086466;28;20031;-88
2022/03/31 03:44:50;;;;;;;27.75;5.22;;;;;;;;;;5082996;28;20029;-88
2022/03/31 03:47:16;;;;;;;20.27;5.07;;;;;;;;;;5086040;28;20033;-88
2022/03/31 03:49:41;;;;;;;13.63;4.50;;;;;;;;;;5088291;28;20021;-89
2022/03/31 03:52:07;;;;;;;7.90;4.22;;;;;;;;;;5085918;28;20024;-88
2022/03/31 03:54:33;;;;;;;13.25;5.00;;;;;;;;;;5082531;28;20484;-89
2022/03/31 03:56:58;;;;;;;14.15;4.95;;;;;;;;;;5080893;28;20032;-87
2022/03/31 03:59:24;;;;;;;12.65;4.65;;;;;;;;;;5085665;28;20039;-87
2022/03/31 04:01:50;;;;;;;9.68;4.00;;;;;;;;;;5087816;28;20464;-88
2022/03/31 04:04:15;;;;;;;17.73;5.45;;;;;;;;;;5079632;28;20024;-87
2022/03/31 04:06:42;;;;;;;11.88;4.47;;;;;;;;;;5078318;28;20020;-88
2022/03/31 04:09:08;;;;;;;18.55;5.20;;;;;;;;;;5084497;28;20032;-87
2022/03/31 04:11:34;;;;;;;15.13;5.20;;;;;;;;;;5088720;28;20799;-88
2022/03/31 04:13:59;;;;;;;17.60;6.50;;;;;;;;;;5083205;28;20165;-89
2022/03/31 04:16:24;;;;;;;11.73;5.00;;;;;;;;;;5086139;28;20028;-88
2022/03/31 04:18:50;;;;;;;15.05;5.05;;;;;;;;;;5082120;28;20521;-87
2022/03/31 04:21:18;;;;;;;10.45;4.25;;;;;;;;;;5085565;28;20388;-88
2022/03/31 04:23:44;;;;;;;11.25;5.93;;;;;;;;;;5081485;28;20031;-87
2022/03/31 04:26:09;;;;;;;12.15;6.10;;;;;;;;;;5081875;28;20047;-88
2022/03/31 04:28:35;;;;;;;18.83;5.82;;;;;;;;;;5073190;28;20035;-86
2022/03/31 04:31:00;;;;;;;13.15;5.70;;;;;;;;;;5082425;28;20028;-87
2022/03/31 04:33:28;;;;;;;10.43;5.05;;;;;;;;;;5079646;28;20023;-88
2022/03/31 04:35:54;;;;;;;13.68;5.18;;;;;;;;;;5080472;28;20089;-88
2022/03/31 04:38:20;;;;;;;15.10;6.38;;;;;;;;;;5072290;28;20024;-90
2022/03/31 04:40:45;;;;;;;17.95;6.25;;;;;;;;;;5075342;28;20105;-86
2022/03/31 04:43:11;;;;;;;16.48;6.15;;;;;;;;;;5072866;28;20090;-87
2022/03/31 04:45:36;;;;;;;14.50;5.38;;;;;;;;;;5078382;28;20422;-86
2022/03/31 04:48:02;;;;;;;17.70;6.18;;;;;;;;;;5084262;28;20027;-87
2022/03/31 04:50:27;;;;;;;16.95;6.47;;;;;;;;;;5085037;28;20031;-88
2022/03/31 04:52:53;;;;;;;18.58;6.28;;;;;;;;;;5079254;28;20062;-86
2022/03/31 04:55:18;;;;;;;15.15;5.95;;;;;;;;;;5083841;28;20031;-88
2022/03/31 04:57:45;;;;;;;19.98;6.35;;;;;;;;;;5085781;28;20150;-88
2022/03/31 05:00:12;;;;;;;19.52;5.10;;;;;;;;;;5080952;28;20024;-89
2022/03/31 05:02:37;;;;;;;20.20;6.68;;;;;;;;;;5083743;28;20028;-88
2022/03/31 05:05:03;;;;;;;20.60;6.60;;;;;;;;;;5080367;28;20401;-87
2022/03/31 05:07:28;;;;;;;15.70;4.72;;;;;;;;;;5085179;28;20028;-88
2022/03/31 05:09:54;;;;;;;17.75;4.93;;;;;;;;;;5077803;28;20067;-87
2022/03/31 05:12:20;;;;;;;15.25;4.68;;;;;;;;;;5082387;28;20032;-87
2022/03/31 05:14:45;;;;;;;14.65;5.03;;;;;;;;;;5075992;28;20039;-88
2022/03/31 05:17:11;;;;;;;23.50;5.40;;;;;;;;;;5079305;28;20024;-87
2022/03/31 05:19:38;;;;;;;19.17;5.72;;;;;;;;;;5083742;28;20031;-87
2022/03/31 05:22:03;;;;;;;18.25;4.68;;;;;;;;;;5078473;28;20052;-89
2022/03/31 05:24:29;;;;;;;17.52;4.43;;;;;;;;;;5076835;28;20051;-89
2022/03/31 05:26:54;;;;;;;19.00;4.22;;;;;;;;;;5080082;28;20027;-87
2022/03/31 05:29:21;;;;;;;23.92;6.30;;;;;;;;;;5078608;28;20028;-85
2022/03/31 05:31:47;;;;;;;14.15;5.03;;;;;;;;;;5082600;28;20035;-84
2022/03/31 05:34:13;;;;;;;19.10;5.40;;;;;;;;;;5078499;28;20601;-86
2022/03/31 05:36:39;;;;;;;14.90;4.13;;;;;;;;;;5085267;28;20106;-85
2022/03/31 05:39:19;;;;;;;14.70;4.13;;;;;;;;;;5081626;28;20027;-85
2022/03/31 05:41:45;;;;;;;19.08;4.72;;;;;;;;;;5082797;28;20492;-85
2022/03/31 05:44:11;;;;;;;17.15;5.18;;;;;;;;;;5080947;28;20024;-82
2022/03/31 05:46:37;;;;;;;18.90;4.55;;;;;;;;;;5080309;28;20032;-86
2022/03/31 05:49:03;;;;;;;14.50;4.35;;;;;;;;;;5072523;28;20104;-84
2022/03/31 05:51:29;;;;;;;16.50;5.72;;;;;;;;;;5074128;28;20026;-85
2022/03/31 05:53:54;;;;;;;19.30;5.25;;;;;;;;;;5080235;28;20032;-86
2022/03/31 05:56:20;;;;;;;32.03;6.72;;;;;;;;;;5084992;28;20060;-84
2022/03/31 05:58:45;;;;;;;20.48;4.90;;;;;;;;;;5079452;28;20495;-83
2022/03/31 06:01:11;;;;;;;14.77;5.55;;;;;;;;;;5077833;28;20020;-83
2022/03/31 06:03:36;;;;;;;21.42;4.88;;;;;;;;;;5079796;28;20032;-84
2022/03/31 06:06:02;;;;;;;19.85;5.80;;;;;;;;;;5086199;28;20020;-83
2022/03/31 06:08:28;;;;;;;14.77;5.40;;;;;;;;;;5077105;28;20028;-85
2022/03/31 06:10:53;;;;;;;20.42;5.20;;;;;;;;;;5073669;28;20028;-84
2022/03/31 06:13:19;;;;;;;21.10;7.05;;;;;;;;;;5079793;28;20028;-84
2022/03/31 06:15:44;;;;;;;17.35;6.35;;;;;;;;;;5084342;28;20475;-84
2022/03/31 06:18:10;;;;;;;21.23;5.43;;;;;;;;;;5075548;28;20112;-85
2022/03/31 06:20:35;;;;;;;18.10;5.95;;;;;;;;;;5085592;28;20025;-85
2022/03/31 06:23:02;;;;;;;17.17;5.32;;;;;;;;;;5082193;28;20039;-85
2022/03/31 06:25:28;;;;;;;19.15;5.28;;;;;;;;;;5078423;28;20016;-85
2022/03/31 06:27:54;;;;;;;26.80;5.53;;;;;;;;;;5074981;28;20392;-86
2022/03/31 06:30:20;;;;;;;21.65;5.05;;;;;;;;;;5077111;28;20489;-84
2022/03/31 06:32:46;;;;;;;22.23;4.63;;;;;;;;;;5086301;28;20545;-85
2022/03/31 06:35:14;;;;;;;18.27;5.28;;;;;;;;;;5075559;28;20031;-85
2022/03/31 06:37:41;;;;;;;25.27;5.82;;;;;;;;;;5078207;28;20811;-85
2022/03/31 06:40:07;;;;;;;22.48;4.20;;;;;;;;;;5079036;28;20550;-83
2022/03/31 06:42:33;;;;;;;21.30;4.63;;;;;;;;;;5073806;28;20115;-84
2022/03/31 06:44:58;;;;;;;15.63;4.43;;;;;;;;;;5084605;28;20111;-84
2022/03/31 06:47:24;;;;;;;21.77;5.10;;;;;;;;;;5083523;28;20028;-84
2022/03/31 06:49:49;;;;;;;23.92;5.10;;;;;;;;;;5077248;28;20028;-83
2022/03/31 06:52:15;;;;;;;14.93;4.88;;;;;;;;;;5083959;28;20016;-83
2022/03/31 06:54:41;;;;;;;19.00;4.35;;;;;;;;;;5079061;28;20081;-84
2022/03/31 06:57:06;;;;;;;18.63;5.60;;;;;;;;;;5078755;28;20028;-85
2022/03/31 06:59:32;;;;;;;17.65;5.22;;;;;;;;;;5077969;28;20025;-84
2022/03/31 07:01:58;;;;;;;28.92;5.45;;;;;;;;;;5079902;28;20040;-85
2022/03/31 07:04:23;;;;;;;20.38;5.15;;;;;;;;;;5076927;28;20104;-82
2022/03/31 07:06:53;;;;;;;18.38;5.13;;;;;;;;;;5080234;28;20032;-85
2022/03/31 07:09:18;;;;;;;19.35;5.25;;;;;;;;;;5077358;28;20036;-85
2022/03/31 07:11:44;;;;;;;19.35;4.65;;;;;;;;;;5082053;28;20101;-84
2022/03/31 07:14:09;;;;;;;21.92;5.47;;;;;;;;;;5078334;28;20435;-85
2022/03/31 07:16:35;;;;;;;22.83;6.07;;;;;;;;;;5080104;28;20106;-83
2022/03/31 07:19:01;;;;;;;19.85;4.70;;;;;;;;;;5076540;28;20078;-84
2022/03/31 07:21:27;;;;;;;18.63;5.88;;;;;;;;;;5080874;28;20028;-85
2022/03/31 07:23:53;;;;;;;24.52;5.85;;;;;;;;;;5076903;28;20122;-84
2022/03/31 07:26:19;;;;;;;16.27;5.28;;;;;;;;;;5080437;28;20099;-82
2022/03/31 07:28:44;;;;;;;22.60;5.70;;;;;;;;;;5079159;28;20027;-85
2022/03/31 07:31:10;;;;;;;31.50;7.88;;;;;;;;;;5083188;28;20089;-82
2022/03/31 07:33:36;;;;;;;29.55;7.97;;;;;;;;;;5084863;28;20472;-84
2022/03/31 07:36:01;;;;;;;18.05;4.85;;;;;;;;;;5084073;28;20025;-83
2022/03/31 07:38:27;;;;;;;15.45;4.53;;;;;;;;;;5082830;28;20029;-84
2022/03/31 07:40:52;;;;;;;38.60;8.23;;;;;;;;;;5081136;28;20102;-84
2022/03/31 07:43:18;;;;;;;13.07;5.35;;;;;;;;;;5082376;28;20024;-83
2022/03/31 07:45:45;;;;;;;18.48;6.47;;;;;;;;;;5081003;28;20024;-84
2022/03/31 07:48:15;;;;;;;18.20;5.55;;;;;;;;;;5080294;28;20036;-83
2022/03/31 07:50:40;;;;;;;;;;;;;;;;;;5076956;28;20033;-87
2022/03/31 07:53:06;;;;;;;21.83;5.18;;;;;;;;;;5085171;28;20276;-83
2022/03/31 07:55:31;;;;;;;20.50;4.95;;;;;;;;;;5083456;28;20031;-83
2022/03/31 07:57:57;;;;;;;16.55;4.22;;;;;;;;;;5075765;28;20120;-84
2022/03/31 08:00:23;;;;;;;23.05;6.07;;;;;;;;;;5084609;28;20131;-84
2022/03/31 08:02:51;;;;;;;24.42;5.47;;;;;;;;;;5083514;28;20020;-84
2022/03/31 08:05:22;;;;;;;22.75;5.22;;;;;;;;;;5082355;28;20024;-85
2022/03/31 08:07:48;;;;;;;23.98;5.25;;;;;;;;;;5083908;28;20071;-84
2022/03/31 08:10:14;;;;;;;19.80;5.95;;;;;;;;;;5083581;28;20028;-84
2022/03/31 08:12:40;;;;;;;33.30;6.78;;;;;;;;;;5086432;28;20221;-83
2022/03/31 08:15:08;;;;;;;18.42;4.70;;;;;;;;;;5079247;28;20025;-83
2022/03/31 08:17:33;;;;;;;16.00;5.13;;;;;;;;;;5075703;28;20055;-83
2022/03/31 08:20:00;;;;;;;49.53;7.68;;;;;;;;;;5082028;28;20050;-83
2022/03/31 08:22:26;;;;;;;27.58;6.18;;;;;;;;;;5080906;28;20031;-82
2022/03/31 08:24:52;;;;;;;23.08;5.82;;;;;;;;;;5080150;28;20027;-83
2022/03/31 08:27:18;;;;;;;33.80;6.13;;;;;;;;;;5080225;28;20032;-82
2022/03/31 08:29:43;;;;;;;21.80;5.03;;;;;;;;;;5085503;28;20021;-84
2022/03/31 08:32:09;;;;;;;18.33;4.88;;;;;;;;;;5081392;28;20480;-83
2022/03/31 08:34:35;;;;;;;22.05;6.28;;;;;;;;;;5078164;28;20033;-83
2022/03/31 08:37:01;;;;;;;30.13;6.70;;;;;;;;;;5080532;28;20036;-83
2022/03/31 08:39:27;;;;;;;32.63;6.28;;;;;;;;;;5074852;28;20020;-81
2022/03/31 08:41:52;;;;;;;56.20;10.50;;;;;;;;;;5082823;28;20116;-81
2022/03/31 08:44:22;;;;;;;22.25;6.10;;;;;;;;;;5081026;28;20086;-82
2022/03/31 08:46:49;;;;;;;21.27;4.97;;;;;;;;;;5078233;28;20473;-82
2022/03/31 08:49:16;;;;;;;25.48;5.53;;;;;;;;;;5080188;28;20090;-82
2022/03/31 08:51:46;;;;;;;22.70;5.07;;;;;;;;;;5086274;28;20028;-83
2022/03/31 08:54:11;;;;;;;19.92;5.05;;;;;;;;;;5075578;28;20468;-83
2022/03/31 08:56:38;;;;;;;20.08;4.95;;;;;;;;;;5079160;28;20025;-84
2022/03/31 08:59:04;;;;;;;25.13;5.07;;;;;;;;;;5074896;28;20471;-83
2022/03/31 09:01:31;;;;;;;22.83;5.18;;;;;;;;;;5077786;28;20031;-84
2022/03/31 09:03:56;;;;;;;23.92;6.22;;;;;;;;;;5073197;28;20438;-83
2022/03/31 09:06:23;;;;;;;21.30;5.15;;;;;;;;;;5077740;28;20023;-84
2022/03/31 09:09:00;;;;;;;27.98;5.20;;;;;;;;;;5075583;28;20476;-83
2022/03/31 09:11:29;;;;;;;18.30;4.90;;;;;;;;;;5077843;28;20415;-85
2022/03/31 09:13:59;;;;;;;46.38;7.82;;;;;;;;;;5078457;28;20033;-84
2022/03/31 09:16:38;;;;;;;18.50;5.40;;;;;;;;;;5071967;28;20037;-84
2022/03/31 09:19:10;;;;;;;20.00;4.68;;;;;;;;;;5071559;28;20559;-86
2022/03/31 09:21:58;;;;;;;16.85;4.68;;;;;;;;;;5077957;28;20032;-84
2022/03/31 09:24:27;;;;;;;30.65;5.93;;;;;;;;;;5075423;28;20024;-83
2022/03/31 09:26:53;;;;;;;18.48;4.68;;;;;;;;;;5072114;28;20634;-85
2022/03/31 09:29:28;;;;;;;23.25;5.05;;;;;;;;;;5074248;28;20435;-84
2022/03/31 09:32:12;;;;;;;35.53;8.65;;;;;;;;;;5084385;28;20039;-84
2022/03/31 09:34:44;;;;;;;16.52;4.57;;;;;;;;;;5083919;28;20039;-85
2022/03/31 09:37:09;;;;;;;19.70;4.63;;;;;;;;;;5079210;28;20027;-83
2022/03/31 09:39:35;;;;;;;20.30;4.22;;;;;;;;;;5077299;28;20027;-85
2022/03/31 09:42:01;;;;;;;23.75;5.10;;;;;;;;;;5082734;28;20387;-85
2022/03/31 09:44:26;;;;;;;21.50;4.22;;;;;;;;;;5081340;28;20473;-84
2022/03/31 09:46:52;;;;;;;20.10;3.83;;;;;;;;;;5076990;28;20098;-83
2022/03/31 09:49:24;;;;;;;15.40;4.32;;;;;;;;;;5081481;28;20055;-85
2022/03/31 09:52:02;;;;;;;17.73;4.90;;;;;;;;;;5078760;28;20077;-81
2022/03/31 09:54:31;;;;;;;16.08;3.95;;;;;;;;;;5082401;28;20472;-83
2022/03/31 09:57:09;;;;;;;27.30;5.72;;;;;;;;;;5076758;28;20032;-85
2022/03/31 09:59:42;;;;;;;20.20;5.25;;;;;;;;;;5077433;28;20077;-84
2022/03/31 10:02:08;;;;;;;21.98;5.95;;;;;;;;;;5070224;28;20036;-83
2022/03/31 10:04:35;;;;;;;23.20;5.18;;;;;;;;;;5082318;28;20016;-84
2022/03/31 10:07:02;;;;;;;23.73;6.45;;;;;;;;;;5078495;28;20027;-83
2022/03/31 10:09:28;;;;;;;29.85;5.78;;;;;;;;;;5079972;28;20040;-83
2022/03/31 10:12:14;;;;;;;20.65;4.82;;;;;;;;;;5082131;28;20058;-82
2022/03/31 10:14:50;;;;;;;25.33;4.28;;;;;;;;;;5084471;28;20119;-84
2022/03/31 10:17:16;;;;;;;19.38;3.97;;;;;;;;;;5085487;28;20384;-85
2022/03/31 10:19:47;;;;;;;19.85;4.40;;;;;;;;;;5080086;28;20020;-84
2022/03/31 10:25:10;;;;;;;17.40;4.72;;;;;;;;;;5084352;28;20030;-82
2022/03/31 10:27:38;;;;;;;21.75;5.55;;;;;;;;;;5079302;28;20100;-84
2022/03/31 10:30:26;;;;;;;21.65;3.78;;;;;;;;;;5083725;28;20032;-85
2022/03/31 10:32:57;;;;;;;15.52;3.47;;;;;;;;;;5078509;28;20051;-84
2022/03/31 10:35:27;;;;;;;17.42;3.78;;;;;;;;;;5084476;28;20025;-83
2022/03/31 10:37:54;;;;;;;13.50;4.47;;;;;;;;;;5082819;28;20038;-84
2022/03/31 10:40:38;;;;;;;19.33;5.25;;;;;;;;;;5080611;28;20377;-85
2022/03/31 10:43:05;;;;;;;19.90;4.45;;;;;;;;;;5077295;28;20119;-84
2022/03/31 10:45:35;;;;;;;20.23;4.90;;;;;;;;;;5076345;28;20023;-84
2022/03/31 10:48:11;;;;;;;;;;;;;;;;;;5080270;28;20076;-85
2022/03/31 10:50:37;;;;;;;16.15;4.10;;;;;;;;;;5077855;28;19919;-84
2022/03/31 10:53:03;;;;;;;17.05;4.72;;;;;;;;;;5085863;28;20028;-86
2022/03/31 10:55:48;;;;;;;17.30;5.28;;;;;;;;;;5078051;28;20455;-84
2022/03/31 10:58:25;;;;;;;18.42;5.00;;;;;;;;;;5075835;28;20024;-83
2022/03/31 11:00:55;;;;;;;18.02;3.95;;;;;;;;;;5076665;28;20021;-84
2022/03/31 11:03:21;;;;;;;;;;;;;;;;;;5080736;28;20052;-83
2022/03/31 11:05:48;;;;;;;18.23;4.55;;;;;;;;;;5078535;28;19948;-83
2022/03/31 11:08:17;;;;;;;17.17;4.15;;;;;;;;;;5082709;28;20475;-84
2022/03/31 11:10:49;;;;;;;14.38;4.15;;;;;;;;;;5083617;28;20438;-84
2022/03/31 11:13:18;;;;;;;13.82;4.13;;;;;;;;;;5084738;28;20035;-85
2022/03/31 11:15:47;;;;;;;17.98;4.70;;;;;;;;;;5087608;28;20134;-84
2022/03/31 11:18:12;;;;;;;16.55;4.53;;;;;;;;;;5084163;28;20030;-83
2022/03/31 11:20:38;;;;;;;21.10;4.68;;;;;;;;;;5078541;28;20502;-82
2022/03/31 11:23:06;;;;;;;16.98;5.25;;;;;;;;;;5091883;28;20036;-83
2022/03/31 11:25:33;;;;;;;17.92;3.78;;;;;;;;;;5084292;28;20016;-85
2022/03/31 11:28:10;;;;;;;14.30;4.25;;;;;;;;;;5087123;28;20059;-85
2022/03/31 11:30:36;;;;;;;20.50;6.10;;;;;;;;;;5088232;28;20532;-83
2022/03/31 11:33:03;;;;;;;25.15;5.80;;;;;;;;;;5112368;27;20709;-82
2022/03/31 11:35:29;;;;;;;22.70;6.18;;;;;;;;;;5082901;28;20434;-84
2022/03/31 11:38:00;;;;;;;16.58;4.70;;;;;;;;;;5082530;28;20020;-83
2022/03/31 11:40:27;;;;;;;25.52;5.97;;;;;;;;;;5080556;28;20044;-86
2022/03/31 11:42:56;;;;;;;28.08;6.65;;;;;;;;;;5079252;28;20043;-82
2022/03/31 11:45:46;;;;;;;24.87;4.50;;;;;;;;;;5088291;28;20024;-83
2022/03/31 11:48:20;;;;;;;42.05;6.80;;;;;;;;;;5084677;28;20098;-84
2022/03/31 11:50:52;;;;;;;19.58;4.30;;;;;;;;;;5084589;28;20031;-83
2022/03/31 11:53:24;;;;;;;12.95;3.75;;;;;;;;;;5085148;28;20024;-84
2022/03/31 11:56:00;;;;;;;16.95;4.25;;;;;;;;;;5071186;28;20033;-83
2022/03/31 11:58:30;;;;;;;14.75;3.67;;;;;;;;;;5077725;28;20479;-86
2022/03/31 12:00:56;;;;;;;39.85;7.55;;;;;;;;;;5078404;28;20028;-83
2022/03/31 12:03:22;;;;;;;16.63;2.47;;;;;;;;;;5088754;28;20476;-83
2022/03/31 12:05:58;;;;;;;12.73;2.78;;;;;;;;;;5087402;28;20042;-84
2022/03/31 12:08:27;;;;;;;11.05;2.35;;;;;;;;;;5086890;28;20107;-84
2022/03/31 12:10:54;;;;;;;8.30;2.50;;;;;;;;;;5082963;28;20039;-84
2022/03/31 12:13:21;;;;;;;10.55;2.72;;;;;;;;;;5084550;28;20377;-86
2022/03/31 12:15:47;;;;;;;9.30;2.85;;;;;;;;;;5079772;28;20078;-87
2022/03/31 12:18:18;;;;;;;13.50;2.83;;;;;;;;;;5084712;28;20028;-84
2022/03/31 12:20:46;;;;;;;12.60;2.80;;;;;;;;;;5085758;28;20035;-83
2022/03/31 12:23:21;;;;;;;7.32;3.28;;;;;;;;;;5078441;28;20019;-84
2022/03/31 12:25:47;;;;;;;12.80;2.55;;;;;;;;;;5081261;28;20454;-85
2022/03/31 12:28:13;;;;;;;11.25;3.60;;;;;;;;;;5088389;28;20103;-84
2022/03/31 12:30:41;;;;;;;46.17;5.85;;;;;;;;;;5090173;28;20112;-84
2022/03/31 12:33:26;;;;;;;19.75;4.78;;;;;;;;;;5078854;28;20473;-83
2022/03/31 12:36:06;;;;;;;14.50;3.88;;;;;;;;;;5082690;28;20024;-84
2022/03/31 12:38:39;;;;;;;14.52;3.80;;;;;;;;;;5080387;28;20469;-85
2022/03/31 12:41:15;;;;;;;24.88;4.95;;;;;;;;;;5077184;28;20053;-84
2022/03/31 12:43:42;;;;;;;17.17;4.00;;;;;;;;;;5077139;28;20035;-86
2022/03/31 12:46:16;;;;;;;27.08;4.32;;;;;;;;;;5087481;28;20028;-85
2022/03/31 12:49:14;;;;;;;62.72;8.98;;;;;;;;;;5077662;28;20457;-85
2022/03/31 12:51:41;;;;;;;27.73;4.85;;;;;;;;;;5080015;28;20051;-84
2022/03/31 12:54:38;;;;;;;21.02;5.25;;;;;;;;;;5080186;28;20024;-84
2022/03/31 12:57:17;;;;;;;43.83;6.68;;;;;;;;;;5083275;28;20032;-85
2022/03/31 12:59:55;;;;;;;23.70;4.75;;;;;;;;;;5083470;28;20400;-83
2022/03/31 13:02:21;;;;;;;25.75;5.38;;;;;;;;;;5081996;28;20027;-84
2022/03/31 13:04:46;;;;;;;22.85;4.82;;;;;;;;;;5083093;28;20134;-82
2022/03/31 13:07:14;;;;;;;34.58;6.30;;;;;;;;;;5082193;28;20032;-83
2022/03/31 13:09:41;;;;;;;17.02;4.63;;;;;;;;;;5082653;28;20456;-83
2022/03/31 13:12:10;;;;;;;22.15;4.38;;;;;;;;;;5085787;28;20423;-84
2022/03/31 13:14:37;;;;;;;26.95;5.93;;;;;;;;;;5089277;28;20027;-83
2022/03/31 13:17:04;;;;;;;31.05;5.00;;;;;;;;;;5080145;28;20042;-84
2022/03/31 13:19:31;;;;;;;22.45;5.03;;;;;;;;;;5080155;28;20032;-83
2022/03/31 13:21:57;;;;;;;23.05;5.22;;;;;;;;;;5084219;28;20431;-84
2022/03/31 13:24:22;;;;;;;25.38;5.25;;;;;;;;;;5081066;28;20028;-85
2022/03/31 13:26:51;;;;;;;16.02;3.97;;;;;;;;;;5078878;28;20023;-84
2022/03/31 13:29:20;;;;;;;22.25;5.28;;;;;;;;;;5079161;28;20031;-83
2022/03/31 13:31:50;;;;;;;28.35;5.68;;;;;;;;;;5080097;28;20046;-83
2022/03/31 13:34:17;;;;;;;23.75;5.45;;;;;;;;;;5085057;28;20027;-84
2022/03/31 13:36:47;;;;;;;22.48;5.93;;;;;;;;;;5084398;28;20449;-85
2022/03/31 13:39:15;;;;;;;22.35;5.47;;;;;;;;;;5078819;28;20553;-82
2022/03/31 13:41:43;;;;;;;24.02;5.82;;;;;;;;;;5080265;28;20044;-82
2022/03/31 13:44:10;;;;;;;27.52;6.20;;;;;;;;;;5079065;28;20052;-83
2022/03/31 13:46:36;;;;;;;21.15;4.38;;;;;;;;;;5074379;28;20544;-84
2022/03/31 13:49:02;;;;;;;19.85;4.50;;;;;;;;;;5076615;28;20055;-84
2022/03/31 13:51:27;;;;;;;28.60;4.40;;;;;;;;;;5077960;28;20020;-83
2022/03/31 13:53:55;;;;;;;26.90;5.07;;;;;;;;;;5069228;28;20465;-82
2022/03/31 13:56:22;;;;;;;31.17;6.30;;;;;;;;;;5076750;28;20111;-81
2022/03/31 14:01:34;;;;;;;20.70;5.13;;;;;;;;;;5076013;28;20091;-82
2022/03/31 14:04:01;;;;;;;27.10;6.03;;;;;;;;;;5069482;28;20040;-84
2022/03/31 14:06:29;;;;;;;22.33;5.18;;;;;;;;;;5072879;28;20110;-83
2022/03/31 14:08:55;;;;;;;28.48;6.55;;;;;;;;;;5073661;28;20392;-83
2022/03/31 14:11:21;;;;;;;25.50;5.05;;;;;;;;;;5073693;28;20036;-84
2022/03/31 14:13:51;;;;;;;17.98;4.80;;;;;;;;;;5076632;28;20395;-85
2022/03/31 14:16:17;;;;;;;28.95;6.18;;;;;;;;;;5076235;28;20524;-84
2022/03/31 14:18:44;;;;;;;29.33;5.40;;;;;;;;;;5081213;28;20089;-84
2022/03/31 14:21:11;;;;;;;22.75;4.65;;;;;;;;;;5073794;28;20461;-83
2022/03/31 14:23:37;;;;;;;17.88;4.60;;;;;;;;;;5077564;28;20102;-84
2022/03/31 14:26:04;;;;;;;26.27;4.72;;;;;;;;;;5106383;27;20039;-84
2022/03/31 14:28:35;;;;;;;22.90;4.95;;;;;;;;;;5076384;28;20026;-84
2022/03/31 14:31:02;;;;;;;23.35;4.80;;;;;;;;;;5077208;28;20024;-84
2022/03/31 14:33:27;;;;;;;47.15;9.80;;;;;;;;;;5076975;28;20107;-83
2022/03/31 14:35:53;;;;;;;23.30;5.60;;;;;;;;;;5067787;28;20104;-84
2022/03/31 14:38:18;;;;;;;32.15;5.97;;;;;;;;;;5079226;28;20235;-85
2022/03/31 14:40:45;;;;;;;20.27;4.15;;;;;;;;;;5087492;28;20056;-83
2022/03/31 14:43:11;;;;;;;25.90;5.57;;;;;;;;;;5089754;28;20028;-85